Time;durP1;ratioP1;P1;durP2;ratioP2;P2;SDS_P1;SDS_P2;PMS_P1;PMS_P2;Temp;Humidity;BMP_temperature;BMP_pressure;BME280_temperature;BME280_humidity;BME280_pressure;Samples;Min_cycle;Max_cycle;Signal;HPM_P1;HPM_P2
2024/01/09 00:00:23;;;;;;;5.32;3.55;;;22.20;52.30;;;;;;5047520;28;20041;-73
2024/01/09 00:02:50;;;;;;;6.10;3.58;;;22.30;52.40;;;;;;5073846;28;20456;-73
2024/01/09 00:05:16;;;;;;;5.72;3.97;;;22.20;52.30;;;;;;5086026;28;20402;-73
2024/01/09 00:07:42;;;;;;;5.43;3.92;;;22.10;52.40;;;;;;5104114;28;20043;-74
2024/01/09 00:10:08;;;;;;;5.20;3.70;;;22.20;52.60;;;;;;5111488;28;20106;-74
2024/01/09 00:12:34;;;;;;;7.90;4.07;;;21.60;52.30;;;;;;5111692;28;20061;-73
2024/01/09 00:15:00;;;;;;;5.30;3.67;;;22.00;52.60;;;;;;5111072;28;20039;-73
2024/01/09 00:17:26;;;;;;;7.35;3.88;;;22.20;52.50;;;;;;5111061;28;20114;-73
2024/01/09 00:19:52;;;;;;;6.90;4.50;;;22.20;52.60;;;;;;5111334;28;20038;-73
2024/01/09 00:22:19;;;;;;;6.20;4.07;;;22.20;52.50;;;;;;5109253;28;20123;-74
2024/01/09 00:24:45;;;;;;;6.57;3.97;;;22.40;52.50;;;;;;5110965;28;20051;-73
2024/01/09 00:27:11;;;;;;;6.53;3.97;;;22.10;52.50;;;;;;5109692;28;20504;-73
2024/01/09 00:29:37;;;;;;;6.10;4.13;;;22.30;53.20;;;;;;5110977;28;20407;-73
2024/01/09 00:32:03;;;;;;;7.47;4.03;;;22.30;52.90;;;;;;5111277;28;20035;-74
2024/01/09 00:34:29;;;;;;;6.85;3.83;;;22.30;52.90;;;;;;5110165;28;20035;-74
2024/01/09 00:36:55;;;;;;;7.63;4.13;;;22.40;52.20;;;;;;5110991;28;20044;-74
2024/01/09 00:39:21;;;;;;;6.82;4.15;;;22.70;51.80;;;;;;5109804;28;20120;-73
2024/01/09 00:41:47;;;;;;;7.18;4.00;;;22.30;51.70;;;;;;5087809;28;20441;-73
2024/01/09 00:44:13;;;;;;;7.95;3.47;;;22.30;53.00;;;;;;5097130;28;20518;-73
2024/01/09 00:46:39;;;;;;;8.38;3.60;;;22.20;52.50;;;;;;5111272;28;20031;-73
2024/01/09 00:49:06;;;;;;;5.82;3.63;;;22.30;52.80;;;;;;5110835;28;20040;-73
2024/01/09 00:51:32;;;;;;;5.28;3.38;;;22.40;52.60;;;;;;5110736;28;20479;-74
2024/01/09 00:53:58;;;;;;;6.63;3.88;;;22.40;52.50;;;;;;5110361;28;20103;-73
2024/01/09 00:56:24;;;;;;;6.15;3.88;;;22.40;52.60;;;;;;5113010;28;20035;-74
2024/01/09 00:58:50;;;;;;;7.07;3.60;;;22.30;52.60;;;;;;5113735;28;20035;-74
2024/01/09 01:01:16;;;;;;;6.57;4.00;;;22.40;52.60;;;;;;5115041;28;20526;-74
2024/01/09 01:03:43;;;;;;;6.60;3.58;;;22.20;52.40;;;;;;5114493;28;20032;-74
2024/01/09 01:06:09;;;;;;;6.43;3.83;;;22.30;52.70;;;;;;5114958;28;20045;-74
2024/01/09 01:08:37;;;;;;;4.82;2.97;;;22.30;51.20;;;;;;5114684;28;20032;-73
2024/01/09 01:11:05;;;;;;;4.15;3.30;;;22.10;51.70;;;;;;5115125;28;20126;-73
2024/01/09 01:13:31;;;;;;;4.50;3.38;;;22.10;52.00;;;;;;5083249;28;20082;-73
2024/01/09 01:15:57;;;;;;;5.75;3.58;;;22.00;52.00;;;;;;5114921;28;20483;-74
2024/01/09 01:18:23;;;;;;;5.70;3.30;;;22.10;51.60;;;;;;5109818;28;20364;-74
2024/01/09 01:20:49;;;;;;;5.53;2.90;;;22.20;51.80;;;;;;5112133;28;20023;-74
2024/01/09 01:23:15;;;;;;;5.43;3.60;;;22.00;51.70;;;;;;5113376;28;20023;-74
2024/01/09 01:25:41;;;;;;;6.78;4.00;;;22.00;51.80;;;;;;5113668;28;20122;-73
2024/01/09 01:28:07;;;;;;;4.47;3.05;;;22.00;51.90;;;;;;5114626;28;20463;-74
2024/01/09 01:30:33;;;;;;;5.53;3.53;;;22.10;51.90;;;;;;5114154;28;20092;-75
2024/01/09 01:32:59;;;;;;;4.43;3.17;;;22.10;51.80;;;;;;5112450;28;20051;-74
2024/01/09 01:35:25;;;;;;;4.80;3.20;;;22.00;52.80;;;;;;5114207;28;20063;-74
2024/01/09 01:37:51;;;;;;;5.95;3.60;;;22.00;53.00;;;;;;5114418;28;20448;-74
2024/01/09 01:40:17;;;;;;;4.78;3.25;;;21.80;51.20;;;;;;5114328;28;20058;-74
2024/01/09 01:42:44;;;;;;;5.25;3.47;;;21.90;51.30;;;;;;5114199;28;20066;-74
2024/01/09 01:45:16;;;;;;;7.15;4.13;;;21.90;52.40;;;;;;5113473;28;20391;-75
2024/01/09 01:47:46;;;;;;;6.03;3.63;;;21.80;50.60;;;;;;5094541;28;20028;-75
2024/01/09 01:50:15;;;;;;;4.32;3.28;;;21.80;50.60;;;;;;5069926;28;20143;-75
2024/01/09 01:52:43;;;;;;;5.20;3.08;;;21.20;50.30;;;;;;5051210;28;20366;-74
2024/01/09 01:55:10;;;;;;;4.82;3.13;;;21.70;50.60;;;;;;5051788;28;20057;-74
2024/01/09 01:57:38;;;;;;;6.28;3.63;;;21.60;50.20;;;;;;5051799;28;20079;-74
2024/01/09 02:00:05;;;;;;;5.47;3.58;;;21.70;51.60;;;;;;5060647;28;20055;-75
2024/01/09 02:02:38;;;;;;;6.10;3.83;;;21.80;49.90;;;;;;5053501;28;20123;-74
2024/01/09 02:05:06;;;;;;;5.28;3.38;;;21.60;49.90;;;;;;5060752;28;20182;-74
2024/01/09 02:07:34;;;;;;;5.05;3.45;;;21.80;50.80;;;;;;5051864;28;20037;-74
2024/01/09 02:10:01;;;;;;;5.97;3.28;;;21.90;50.40;;;;;;5064507;28;20160;-74
2024/01/09 02:12:27;;;;;;;5.25;3.72;;;21.90;50.00;;;;;;5070855;28;20033;-74
2024/01/09 02:14:53;;;;;;;8.40;3.72;;;21.90;49.80;;;;;;5047360;28;20032;-74
2024/01/09 02:17:19;;;;;;;4.55;2.90;;;21.90;49.60;;;;;;5067702;28;20064;-74
2024/01/09 02:19:45;;;;;;;4.68;3.30;;;22.00;49.40;;;;;;5068251;28;20032;-74
2024/01/09 02:22:13;;;;;;;5.88;3.15;;;22.10;49.30;;;;;;5093601;28;20080;-73
2024/01/09 02:24:39;;;;;;;5.18;3.75;;;22.10;49.10;;;;;;5113431;28;20027;-74
2024/01/09 02:27:24;;;;;;;5.70;3.50;;;22.00;47.80;;;;;;5113675;28;20023;-74
2024/01/09 02:29:50;;;;;;;5.85;3.67;;;21.90;48.30;;;;;;5113497;28;20060;-74
2024/01/09 02:32:18;;;;;;;8.85;3.88;;;21.80;48.10;;;;;;5111233;27;20503;-74
2024/01/09 02:34:48;;;;;;;5.43;3.47;;;21.80;48.10;;;;;;5108973;28;20482;-74
2024/01/09 02:37:14;;;;;;;4.75;3.58;;;21.60;48.10;;;;;;5112823;28;20062;-74
2024/01/09 02:39:40;;;;;;;5.50;3.40;;;21.20;48.00;;;;;;5113191;28;20031;-74
2024/01/09 02:42:07;;;;;;;7.10;3.72;;;21.60;48.20;;;;;;5111512;28;20499;-75
2024/01/09 02:44:33;;;;;;;7.43;3.78;;;21.60;48.00;;;;;;5111830;28;20031;-75
2024/01/09 02:46:59;;;;;;;6.85;4.28;;;21.60;48.00;;;;;;5112912;28;20511;-74
2024/01/09 02:49:25;;;;;;;6.15;3.55;;;21.60;48.00;;;;;;5113087;28;20051;-74
2024/01/09 02:51:51;;;;;;;8.65;3.58;;;21.40;49.40;;;;;;5076971;28;20047;-74
2024/01/09 02:54:18;;;;;;;5.28;3.40;;;21.80;48.00;;;;;;5111564;28;20047;-74
2024/01/09 02:56:44;;;;;;;6.05;3.83;;;21.50;48.80;;;;;;5113082;28;20039;-75
2024/01/09 02:59:10;;;;;;;7.35;3.85;;;21.50;48.40;;;;;;5110585;28;20051;-74
2024/01/09 03:01:36;;;;;;;4.85;3.88;;;21.80;48.20;;;;;;5112959;27;20035;-75
2024/01/09 03:04:02;;;;;;;5.38;3.60;;;21.70;48.00;;;;;;5110765;28;20390;-74
2024/01/09 03:06:28;;;;;;;5.70;3.75;;;21.80;47.80;;;;;;5103600;28;20032;-74
2024/01/09 03:08:55;;;;;;;5.72;3.22;;;21.80;47.70;;;;;;5106642;28;20043;-74
2024/01/09 03:11:21;;;;;;;5.40;3.75;;;21.70;47.50;;;;;;5112416;28;20027;-74
2024/01/09 03:13:47;;;;;;;6.22;3.58;;;21.70;47.40;;;;;;5111721;28;20438;-74
2024/01/09 03:16:14;;;;;;;7.13;4.38;;;21.90;47.20;;;;;;5112221;28;20038;-74
2024/01/09 03:18:41;;;;;;;5.68;3.22;;;21.90;47.10;;;;;;5111821;28;20104;-74
2024/01/09 03:21:07;;;;;;;7.32;3.70;;;21.90;47.00;;;;;;5112588;27;20034;-74
2024/01/09 03:23:33;;;;;;;5.75;3.75;;;21.80;46.80;;;;;;5112424;28;20055;-75
2024/01/09 03:26:00;;;;;;;5.10;2.92;;;21.80;45.40;;;;;;5072075;28;20046;-74
2024/01/09 03:28:26;;;;;;;5.60;3.40;;;21.70;45.90;;;;;;5092195;28;20028;-75
2024/01/09 03:30:53;;;;;;;6.53;3.80;;;21.70;46.90;;;;;;5098847;28;20040;-74
2024/01/09 03:33:19;;;;;;;5.47;3.25;;;21.60;45.90;;;;;;5097249;28;20028;-75
2024/01/09 03:35:45;;;;;;;5.25;3.20;;;21.40;46.00;;;;;;5103092;28;20042;-74
2024/01/09 03:38:12;;;;;;;6.38;4.03;;;21.50;46.10;;;;;;5112415;28;20062;-74
2024/01/09 03:40:38;;;;;;;5.22;3.42;;;21.60;46.80;;;;;;5112228;28;20089;-75
2024/01/09 03:43:07;;;;;;;7.43;4.20;;;21.40;46.90;;;;;;5110246;28;20154;-75
2024/01/09 03:45:33;;;;;;;6.82;4.00;;;21.40;46.60;;;;;;5093084;28;20039;-74
2024/01/09 03:47:59;;;;;;;7.47;3.60;;;21.50;45.40;;;;;;5101533;28;20081;-75
2024/01/09 03:50:26;;;;;;;6.15;3.72;;;21.40;45.50;;;;;;5091735;28;20044;-75
2024/01/09 03:52:52;;;;;;;6.80;3.50;;;21.40;45.50;;;;;;5108878;28;20381;-74
2024/01/09 03:55:18;;;;;;;6.20;3.38;;;21.30;47.20;;;;;;5110210;28;20059;-74
2024/01/09 03:57:44;;;;;;;5.50;3.35;;;21.50;46.30;;;;;;5110750;28;20035;-75
2024/01/09 04:00:11;;;;;;;6.60;3.78;;;21.50;46.40;;;;;;5109942;28;20031;-75
2024/01/09 04:02:38;;;;;;;6.20;3.92;;;21.60;46.20;;;;;;5110347;28;20043;-74
2024/01/09 04:05:05;;;;;;;6.78;3.55;;;21.70;46.10;;;;;;5111637;28;20031;-74
2024/01/09 04:07:32;;;;;;;5.97;3.00;;;21.60;45.80;;;;;;5108420;28;20028;-74
2024/01/09 04:09:58;;;;;;;4.82;3.33;;;21.60;45.80;;;;;;5111150;28;20028;-74
2024/01/09 04:12:24;;;;;;;7.30;3.58;;;21.60;45.60;;;;;;5111907;28;20031;-74
2024/01/09 04:14:50;;;;;;;6.70;2.90;;;21.70;45.40;;;;;;5109810;28;20305;-75
2024/01/09 04:17:16;;;;;;;7.22;3.38;;;21.70;45.50;;;;;;5108559;28;20055;-74
2024/01/09 04:19:42;;;;;;;7.20;3.50;;;21.70;45.20;;;;;;5111266;28;20037;-74
2024/01/09 04:22:08;;;;;;;6.15;3.70;;;21.70;45.20;;;;;;5110854;28;20404;-74
2024/01/09 04:24:35;;;;;;;6.32;3.55;;;21.70;45.20;;;;;;5111469;28;20036;-74
2024/01/09 04:27:04;;;;;;;6.68;4.10;;;21.60;45.10;;;;;;5111615;28;20036;-73
2024/01/09 04:29:30;;;;;;;6.60;3.47;;;21.40;45.20;;;;;;5111240;28;20020;-74
2024/01/09 04:31:56;;;;;;;6.15;3.70;;;21.40;45.20;;;;;;5110004;28;20027;-74
2024/01/09 04:34:22;;;;;;;8.25;3.60;;;21.50;45.20;;;;;;5111203;28;20042;-74
2024/01/09 04:36:48;;;;;;;6.07;3.53;;;21.40;45.10;;;;;;5111296;28;20109;-74
2024/01/09 04:39:14;;;;;;;4.72;3.95;;;21.40;45.10;;;;;;5111144;28;20575;-74
2024/01/09 04:41:40;;;;;;;5.35;3.50;;;21.20;44.10;;;;;;5087689;28;20067;-74
2024/01/09 04:44:07;;;;;;;5.45;3.60;;;21.00;44.40;;;;;;5087095;28;20093;-73
2024/01/09 04:46:33;;;;;;;7.18;3.88;;;21.00;44.70;;;;;;5087917;28;20036;-74
2024/01/09 04:48:59;;;;;;;5.10;3.55;;;20.90;44.80;;;;;;5088020;28;20055;-74
2024/01/09 04:51:25;;;;;;;5.60;3.78;;;20.90;44.80;;;;;;5088239;28;20048;-73
2024/01/09 04:53:51;;;;;;;6.00;3.85;;;21.00;44.70;;;;;;5087767;28;20430;-74
2024/01/09 04:56:17;;;;;;;7.40;3.90;;;20.80;44.70;;;;;;5088020;28;20044;-74
2024/01/09 04:58:43;;;;;;;7.15;4.00;;;20.80;46.10;;;;;;5080976;28;20070;-74
2024/01/09 05:01:13;;;;;;;8.38;4.38;;;20.80;44.60;;;;;;5087133;28;20036;-73
2024/01/09 05:03:39;;;;;;;7.30;3.58;;;20.70;44.80;;;;;;5088056;28;20036;-74
2024/01/09 05:06:05;;;;;;;7.30;3.90;;;20.60;44.70;;;;;;5087656;28;20051;-74
2024/01/09 05:08:31;;;;;;;7.78;4.57;;;20.70;45.80;;;;;;5087997;28;20114;-74
2024/01/09 05:10:58;;;;;;;9.35;4.63;;;20.60;44.30;;;;;;5087677;28;20043;-74
2024/01/09 05:13:24;;;;;;;6.10;4.22;;;20.60;45.80;;;;;;5106572;28;20177;-74
2024/01/09 05:15:50;;;;;;;10.40;5.30;;;20.80;45.50;;;;;;5109132;28;20057;-74
2024/01/09 05:18:16;;;;;;;6.30;3.60;;;20.90;45.20;;;;;;5110586;28;20126;-74
2024/01/09 05:20:42;;;;;;;6.90;4.07;;;21.00;45.10;;;;;;5090833;28;20074;-74
2024/01/09 05:23:08;;;;;;;9.68;4.72;;;20.90;44.80;;;;;;5110951;28;20035;-74
2024/01/09 05:25:34;;;;;;;8.02;4.20;;;21.10;44.70;;;;;;5110495;28;20387;-75
2024/01/09 05:28:00;;;;;;;10.38;4.40;;;21.10;44.50;;;;;;5110483;28;20497;-75
2024/01/09 05:30:28;;;;;;;7.50;4.80;;;21.00;44.30;;;;;;5109906;28;20819;-74
2024/01/09 05:32:54;;;;;;;6.70;3.90;;;21.00;44.20;;;;;;5110387;28;20022;-74
2024/01/09 05:35:21;;;;;;;7.07;4.15;;;21.10;44.20;;;;;;5109054;28;20085;-74
2024/01/09 05:37:47;;;;;;;6.50;3.75;;;21.10;44.00;;;;;;5110438;28;20092;-74
2024/01/09 05:40:13;;;;;;;8.07;3.97;;;21.20;43.90;;;;;;5109358;28;20473;-74
2024/01/09 05:42:39;;;;;;;6.32;3.83;;;21.30;43.80;;;;;;5112825;28;20039;-74
2024/01/09 05:45:06;;;;;;;6.82;4.57;;;21.20;43.70;;;;;;5113897;28;20490;-74
2024/01/09 05:47:32;;;;;;;9.50;3.92;;;21.20;43.60;;;;;;5112688;28;20463;-73
2024/01/09 05:49:58;;;;;;;5.80;3.63;;;21.40;43.50;;;;;;5113798;28;20047;-74
2024/01/09 05:52:24;;;;;;;5.22;4.05;;;21.30;43.60;;;;;;5114377;28;20510;-74
2024/01/09 05:54:50;;;;;;;6.53;4.40;;;21.30;43.50;;;;;;5112742;28;20023;-75
2024/01/09 05:57:16;;;;;;;8.80;4.53;;;21.30;43.40;;;;;;5093378;28;20043;-74
2024/01/09 05:59:42;;;;;;;7.18;4.00;;;21.20;43.10;;;;;;5111057;28;20059;-74
2024/01/09 06:02:08;;;;;;;6.60;3.72;;;21.30;43.10;;;;;;5110293;28;20023;-74
2024/01/09 06:04:34;;;;;;;6.93;3.60;;;21.30;43.40;;;;;;5114181;28;20035;-74
2024/01/09 06:07:00;;;;;;;5.72;3.75;;;21.40;42.00;;;;;;5112750;28;20395;-74
2024/01/09 06:09:27;;;;;;;9.50;4.45;;;21.20;42.10;;;;;;5059757;28;20039;-74
2024/01/09 06:11:53;;;;;;;8.13;3.72;;;21.20;42.20;;;;;;5113583;28;20050;-74
2024/01/09 06:14:20;;;;;;;5.50;3.75;;;21.10;42.30;;;;;;5114016;28;20031;-73
2024/01/09 06:16:46;;;;;;;6.43;4.32;;;21.20;43.40;;;;;;5105182;28;20070;-69
2024/01/09 06:19:12;;;;;;;5.22;3.95;;;21.30;43.00;;;;;;5103218;28;20430;-70
2024/01/09 06:21:39;;;;;;;2.85;2.53;;;21.30;41.80;;;;;;5103981;28;20119;-77
2024/01/09 06:24:05;;;;;;;3.67;2.85;;;21.40;42.20;;;;;;5104403;28;20027;-76
2024/01/09 06:26:31;;;;;;;3.15;2.53;;;21.70;42.00;;;;;;5092748;28;20387;-79
2024/01/09 06:28:57;;;;;;;3.85;2.72;;;21.70;41.30;;;;;;5105862;28;20036;-74
2024/01/09 06:31:23;;;;;;;2.65;2.28;;;21.70;46.20;;;;;;5102498;28;20039;-77
2024/01/09 06:33:51;;;;;;;3.80;2.92;;;21.70;42.00;;;;;;5102829;28;20045;-79
2024/01/09 06:36:17;;;;;;;5.03;2.63;;;21.80;43.00;;;;;;5106104;28;20058;-75
2024/01/09 06:38:43;;;;;;;2.90;2.28;;;22.00;41.60;;;;;;5106865;28;20027;-78
2024/01/09 06:41:09;;;;;;;4.53;4.07;;;22.10;51.00;;;;;;5104676;28;20039;-79
2024/01/09 06:43:35;;;;;;;4.15;3.70;;;22.30;46.20;;;;;;5106534;28;20160;-77
2024/01/09 06:46:01;;;;;;;5.20;4.70;;;22.40;40.70;;;;;;5104205;28;20466;-76
2024/01/09 06:48:27;;;;;;;3.42;3.13;;;22.30;40.10;;;;;;5108266;28;20054;-77
2024/01/09 06:50:53;;;;;;;2.45;2.05;;;22.60;49.60;;;;;;5097510;28;20482;-78
2024/01/09 06:53:19;;;;;;;5.25;3.75;;;22.60;48.60;;;;;;5092997;28;20035;-76
2024/01/09 06:55:45;;;;;;;8.10;4.35;;;22.80;42.40;;;;;;5110318;28;20038;-81
2024/01/09 06:58:12;;;;;;;7.75;4.32;;;22.80;45.70;;;;;;5105577;28;20035;-78
2024/01/09 07:00:38;;;;;;;5.28;3.40;;;22.80;45.70;;;;;;5100681;28;20032;-77
2024/01/09 07:03:04;;;;;;;9.68;4.88;;;22.70;46.00;;;;;;5111067;28;20032;-77
2024/01/09 07:05:30;;;;;;;5.15;3.80;;;22.70;46.40;;;;;;5109345;28;20154;-77
2024/01/09 07:07:57;;;;;;;6.35;3.80;;;22.60;46.70;;;;;;5113125;28;20035;-76
2024/01/09 07:10:23;;;;;;;5.90;3.80;;;22.50;47.70;;;;;;5110377;28;20046;-79
2024/01/09 07:12:49;;;;;;;7.50;4.50;;;22.60;48.00;;;;;;5057923;28;20077;-77
2024/01/09 07:15:15;;;;;;;8.85;5.05;;;22.70;48.20;;;;;;5112645;28;20039;-76
2024/01/09 07:17:41;;;;;;;7.45;3.83;;;22.40;48.10;;;;;;5104862;28;20058;-75
2024/01/09 07:20:08;;;;;;;8.75;4.97;;;22.30;48.80;;;;;;5112618;28;20027;-75
2024/01/09 07:22:34;;;;;;;10.90;4.32;;;22.30;49.20;;;;;;5112454;28;20027;-74
2024/01/09 07:25:00;;;;;;;9.00;5.13;;;22.40;49.20;;;;;;5112874;28;20096;-78
2024/01/09 07:27:26;;;;;;;7.30;4.40;;;22.40;49.20;;;;;;5111032;28;20107;-77
2024/01/09 07:29:52;;;;;;;8.48;4.68;;;22.40;49.50;;;;;;5111197;28;20471;-74
2024/01/09 07:32:18;;;;;;;2.78;1.77;;;22.30;49.70;;;;;;5110451;28;20038;-78
2024/01/09 07:34:44;;;;;;;2.72;1.67;;;22.30;50.00;;;;;;5110327;28;20042;-74
2024/01/09 07:37:11;;;;;;;5.50;3.20;;;22.30;50.00;;;;;;5093197;28;20130;-76
2024/01/09 07:39:37;;;;;;;4.40;2.30;;;22.50;49.50;;;;;;5112653;28;20058;-78
2024/01/09 07:42:03;;;;;;;5.20;3.20;;;22.60;48.60;;;;;;5112493;28;20044;-77
2024/01/09 07:44:29;;;;;;;2.33;1.70;;;22.60;48.10;;;;;;5111486;28;20036;-81
2024/01/09 07:46:56;;;;;;;2.58;1.80;;;22.60;47.40;;;;;;5110694;28;20031;-76
2024/01/09 07:49:22;;;;;;;6.22;2.80;;;22.60;46.60;;;;;;5111036;27;20062;-79
2024/01/09 07:51:49;;;;;;;8.60;4.57;;;22.70;46.60;;;;;;5110267;28;20034;-75
2024/01/09 07:54:15;;;;;;;4.65;2.25;;;22.80;47.60;;;;;;5109605;28;20429;-75
2024/01/09 07:56:42;;;;;;;9.90;4.90;;;22.70;47.50;;;;;;5111033;28;20118;-75
2024/01/09 07:59:08;;;;;;;6.68;3.65;;;22.70;47.30;;;;;;5111087;28;20621;-77
2024/01/09 08:01:34;;;;;;;8.68;5.00;;;22.70;46.80;;;;;;5110366;28;20040;-78
2024/01/09 08:04:01;;;;;;;10.32;5.18;;;22.70;45.30;;;;;;5067799;28;20096;-78
2024/01/09 08:06:27;;;;;;;8.43;5.28;;;22.70;44.90;;;;;;5111530;28;20096;-77
2024/01/09 08:08:53;;;;;;;8.05;5.03;;;22.50;45.10;;;;;;5108061;28;20039;-77
2024/01/09 08:11:19;;;;;;;10.88;5.45;;;22.50;45.60;;;;;;5109986;28;20023;-77
2024/01/09 08:13:47;;;;;;;7.13;4.57;;;22.40;46.10;;;;;;5087751;28;20039;-76
2024/01/09 08:16:13;;;;;;;8.30;4.85;;;22.50;46.90;;;;;;5111611;28;20114;-75
2024/01/09 08:18:40;;;;;;;9.32;4.95;;;22.30;47.50;;;;;;5110406;28;20036;-76
2024/01/09 08:21:06;;;;;;;10.68;5.38;;;22.30;48.10;;;;;;5087889;28;20081;-77
2024/01/09 08:23:32;;;;;;;9.55;4.63;;;22.20;48.50;;;;;;5103774;28;20028;-76
2024/01/09 08:25:59;;;;;;;7.38;4.70;;;22.20;48.80;;;;;;5092911;28;20133;-77
2024/01/09 08:28:25;;;;;;;11.05;5.10;;;22.10;49.10;;;;;;5111673;28;20032;-76
2024/01/09 08:30:51;;;;;;;9.80;4.75;;;22.40;49.50;;;;;;5109489;28;20098;-76
2024/01/09 08:33:17;;;;;;;7.78;4.75;;;22.20;50.00;;;;;;5074535;28;20123;-77
2024/01/09 08:35:44;;;;;;;7.28;4.70;;;22.40;50.60;;;;;;5109406;28;20046;-77
2024/01/09 08:38:11;;;;;;;10.60;4.95;;;22.40;50.80;;;;;;5109511;28;20111;-76
2024/01/09 08:40:37;;;;;;;7.82;5.00;;;22.30;51.20;;;;;;5073641;28;20096;-76
2024/01/09 08:43:03;;;;;;;8.60;4.82;;;22.30;51.70;;;;;;5091166;28;20039;-76
2024/01/09 08:45:29;;;;;;;7.38;4.82;;;22.30;51.90;;;;;;5108880;28;20513;-76
2024/01/09 08:47:55;;;;;;;8.00;4.57;;;22.30;52.30;;;;;;5110867;28;20726;-75
2024/01/09 08:50:21;;;;;;;9.32;4.60;;;22.20;52.30;;;;;;5108905;28;20040;-77
2024/01/09 08:52:47;;;;;;;8.05;4.80;;;22.10;52.60;;;;;;5110873;28;20035;-77
2024/01/09 08:55:14;;;;;;;7.60;4.55;;;22.20;52.50;;;;;;5110740;28;20055;-73
2024/01/09 08:57:41;;;;;;;11.57;4.97;;;22.10;52.60;;;;;;5110409;28;20035;-73
2024/01/09 09:00:07;;;;;;;8.55;5.22;;;22.10;51.60;;;;;;5110864;28;20035;-76
2024/01/09 09:02:34;;;;;;;7.38;4.57;;;22.00;51.20;;;;;;5108407;28;20115;-78
2024/01/09 09:05:00;;;;;;;6.97;4.80;;;22.10;52.60;;;;;;5104929;28;20032;-77
2024/01/09 09:07:26;;;;;;;9.70;4.97;;;22.20;52.90;;;;;;5111399;28;20035;-76
2024/01/09 09:09:52;;;;;;;8.27;5.40;;;22.30;52.70;;;;;;5105217;28;20179;-72
2024/01/09 09:12:18;;;;;;;10.00;5.32;;;22.20;52.80;;;;;;5109355;28;20031;-80
2024/01/09 09:14:44;;;;;;;7.47;4.78;;;22.20;52.70;;;;;;5098016;28;20484;-74
2024/01/09 09:17:12;;;;;;;7.15;5.15;;;22.10;52.60;;;;;;5102043;28;20123;-74
2024/01/09 09:19:38;;;;;;;7.93;5.45;;;22.20;52.30;;;;;;5114501;28;20031;-74
2024/01/09 09:22:04;;;;;;;10.23;4.70;;;22.20;52.80;;;;;;5114503;28;20069;-75
2024/01/09 09:24:30;;;;;;;10.07;5.57;;;22.20;53.00;;;;;;5114978;28;20055;-76
2024/01/09 09:26:56;;;;;;;9.60;5.50;;;22.30;53.30;;;;;;5114436;27;20030;-74
2024/01/09 09:29:23;;;;;;;10.57;6.18;;;22.10;53.80;;;;;;5114212;28;20031;-75
2024/01/09 09:31:48;;;;;;;7.22;4.32;;;22.20;54.40;;;;;;5110750;28;20040;-77
2024/01/09 09:34:14;;;;;;;8.10;3.38;;;22.10;53.40;;;;;;5115310;28;20391;-78
2024/01/09 09:36:40;;;;;;;23.27;7.38;;;22.30;51.90;;;;;;5115250;28;20028;-74
2024/01/09 09:39:07;;;;;;;5.00;3.20;;;22.50;46.30;;;;;;5115461;28;20444;-76
2024/01/09 09:41:36;;;;;;;7.90;4.18;;;22.40;41.20;;;;;;5115190;28;20024;-74
2024/01/09 09:44:06;;;;;;;6.28;3.95;;;22.40;36.10;;;;;;5115004;28;20023;-74
2024/01/09 09:46:36;;;;;;;9.90;6.35;;;22.40;33.80;;;;;;5112011;28;20055;-74
2024/01/09 09:49:03;;;;;;;11.63;6.45;;;22.40;49.70;;;;;;5104520;28;20479;-71
2024/01/09 09:51:30;;;;;;;9.60;6.50;;;22.50;51.20;;;;;;5114381;28;20035;-76
2024/01/09 09:53:57;;;;;;;8.00;5.90;;;22.50;51.10;;;;;;5114553;28;20031;-76
2024/01/09 09:56:25;;;;;;;16.75;10.77;;;22.60;51.30;;;;;;5114363;28;20085;-76
2024/01/09 09:58:51;;;;;;;11.70;6.32;;;22.50;51.80;;;;;;5107428;28;20482;-76
2024/01/09 10:01:18;;;;;;;9.07;6.22;;;22.50;52.10;;;;;;5102385;28;20044;-77
2024/01/09 10:04:01;;;;;;;10.88;6.15;;;22.30;51.90;;;;;;5094762;28;20048;-76
2024/01/09 10:06:28;;;;;;;11.45;6.53;;;22.40;51.90;;;;;;5096016;28;20115;-78
2024/01/09 10:08:56;;;;;;;9.40;5.18;;;22.50;51.90;;;;;;5106544;28;20514;-76
2024/01/09 10:11:23;;;;;;;10.10;5.95;;;22.50;52.00;;;;;;5113664;28;20475;-75
2024/01/09 10:13:49;;;;;;;9.38;5.97;;;22.60;52.10;;;;;;5114344;28;20766;-73
2024/01/09 10:16:16;;;;;;;14.27;6.45;;;22.50;52.00;;;;;;5107623;28;20046;-80
2024/01/09 10:18:42;;;;;;;9.23;6.13;;;22.50;52.10;;;;;;5114381;28;20497;-76
2024/01/09 10:21:08;;;;;;;9.23;5.47;;;22.50;52.10;;;;;;5114134;28;20431;-74
2024/01/09 10:23:39;;;;;;;8.75;5.40;;;22.50;52.00;;;;;;5114741;28;20088;-76
2024/01/09 10:26:11;;;;;;;9.68;6.55;;;22.50;52.00;;;;;;5112691;28;20044;-75
2024/01/09 10:28:37;;;;;;;10.80;6.28;;;22.40;51.10;;;;;;5108626;28;20028;-75
2024/01/09 10:31:06;;;;;;;12.02;5.85;;;22.30;52.30;;;;;;5112233;28;20483;-75
2024/01/09 10:33:32;;;;;;;8.25;5.20;;;22.50;52.30;;;;;;5111901;28;20038;-75
2024/01/09 10:35:59;;;;;;;8.77;5.60;;;22.40;52.60;;;;;;5113750;27;20495;-76
2024/01/09 10:38:28;;;;;;;11.07;4.25;;;22.30;52.70;;;;;;5113672;28;20043;-74
2024/01/09 10:40:57;;;;;;;15.80;4.18;;;22.40;52.30;;;;;;5113809;28;20039;-73
2024/01/09 10:43:26;;;;;;;10.93;4.90;;;22.70;44.40;;;;;;5112742;28;20057;-72
2024/01/09 10:45:53;;;;;;;7.78;3.88;;;22.80;38.70;;;;;;5108324;28;20043;-75
2024/01/09 10:48:24;;;;;;;6.13;4.40;;;22.70;35.20;;;;;;5112905;28;20069;-68
2024/01/09 10:50:51;;;;;;;8.85;4.32;;;22.50;40.00;;;;;;5114081;28;20076;-75
2024/01/09 10:53:20;;;;;;;7.63;4.15;;;22.60;35.00;;;;;;5108495;28;20502;-73
2024/01/09 10:55:49;;;;;;;7.15;4.30;;;22.60;36.30;;;;;;5097497;28;20047;-73
2024/01/09 10:58:17;;;;;;;5.63;4.00;;;22.50;31.40;;;;;;5101800;28;20024;-75
2024/01/09 11:00:43;;;;;;;5.78;4.43;;;22.50;31.10;;;;;;5092590;28;20028;-73
2024/01/09 11:03:11;;;;;;;4.38;3.67;;;22.50;31.80;;;;;;5096661;28;20027;-75
2024/01/09 11:05:38;;;;;;;7.15;4.03;;;22.50;33.70;;;;;;5097651;28;20035;-74
2024/01/09 11:08:09;;;;;;;7.85;5.43;;;22.50;30.50;;;;;;5106443;28;20043;-72
2024/01/09 11:10:37;;;;;;;7.78;5.22;;;22.70;46.30;;;;;;5099708;28;20369;-73
2024/01/09 11:13:04;;;;;;;11.40;6.18;;;22.80;47.40;;;;;;5108539;28;20028;-76
2024/01/09 11:15:44;;;;;;;9.45;6.32;;;22.90;48.40;;;;;;5102688;28;20438;-72
2024/01/09 11:18:14;;;;;;;9.25;5.72;;;22.70;48.90;;;;;;5082774;28;20064;-73
2024/01/09 11:20:40;;;;;;;11.77;6.47;;;23.00;49.50;;;;;;5097016;28;20106;-73
2024/01/09 11:23:09;;;;;;;9.35;6.13;;;22.80;49.60;;;;;;5101947;28;20044;-71
2024/01/09 11:25:35;;;;;;;10.25;6.85;;;23.00;49.60;;;;;;5112223;28;20399;-75
2024/01/09 11:28:01;;;;;;;13.93;6.70;;;22.90;50.10;;;;;;5112008;28;20134;-74
2024/01/09 11:30:30;;;;;;;11.00;6.18;;;22.90;50.30;;;;;;5110993;28;20027;-74
2024/01/09 11:33:27;;;;;;;11.30;6.38;;;23.00;50.50;;;;;;5103616;28;20027;-71
2024/01/09 11:35:55;;;;;;;12.93;6.60;;;22.70;50.70;;;;;;4981510;28;20633;-72
2024/01/09 11:38:21;;;;;;;11.43;6.75;;;22.70;50.70;;;;;;4988187;28;20573;-72
2024/01/09 11:40:47;;;;;;;10.40;6.65;;;22.70;50.80;;;;;;4984941;28;20043;-72
2024/01/09 11:43:15;;;;;;;10.40;6.13;;;22.60;50.80;;;;;;4984097;28;20057;-72
2024/01/09 11:45:42;;;;;;;11.13;6.63;;;22.50;51.00;;;;;;4988134;28;20155;-73
2024/01/09 11:48:08;;;;;;;10.50;6.57;;;22.50;51.10;;;;;;4970201;28;20662;-72
2024/01/09 11:50:34;;;;;;;9.88;6.53;;;22.50;51.10;;;;;;4976267;28;20067;-72
2024/01/09 11:53:01;;;;;;;8.25;6.07;;;22.40;51.20;;;;;;4971677;28;20135;-75
2024/01/09 11:55:28;;;;;;;10.48;6.28;;;22.40;51.40;;;;;;4970373;28;20189;-74
2024/01/09 11:57:55;;;;;;;12.75;6.80;;;22.40;51.40;;;;;;4985011;28;20038;-75
2024/01/09 12:00:22;;;;;;;12.68;7.18;;;22.40;51.40;;;;;;4988871;28;20046;-74
2024/01/09 12:02:49;;;;;;;9.40;6.70;;;22.40;51.40;;;;;;4977271;28;20047;-74
2024/01/09 12:05:16;;;;;;;12.70;6.43;;;22.50;51.30;;;;;;4979508;28;20034;-75
2024/01/09 12:07:43;;;;;;;13.15;7.47;;;22.50;51.40;;;;;;5007622;28;20041;-75
2024/01/09 12:10:09;;;;;;;11.57;7.10;;;22.50;51.40;;;;;;5028792;28;20033;-74
2024/01/09 12:12:35;;;;;;;13.95;7.57;;;22.40;51.40;;;;;;5055064;28;20039;-74
2024/01/09 12:15:02;;;;;;;12.82;7.63;;;22.40;51.60;;;;;;5110286;28;20087;-74
2024/01/09 12:17:34;;;;;;;11.82;7.10;;;22.30;51.40;;;;;;5110800;28;20510;-74
2024/01/09 12:20:01;;;;;;;;;;;22.40;51.60;;;;;;5111987;28;20071;-74
2024/01/09 12:22:28;;;;;;;10.02;6.15;;;22.40;51.50;;;;;;5111086;28;19907;-74
2024/01/09 12:24:55;;;;;;;15.63;7.20;;;22.30;51.60;;;;;;5111604;28;20100;-74
2024/01/09 12:27:23;;;;;;;10.23;6.90;;;22.40;52.00;;;;;;5111125;28;20043;-74
2024/01/09 12:29:53;;;;;;;11.85;7.65;;;22.20;51.70;;;;;;5111351;28;20108;-74
2024/01/09 12:32:22;;;;;;;12.60;8.20;;;22.20;51.90;;;;;;5110352;28;20038;-74
2024/01/09 12:34:49;;;;;;;11.52;7.70;;;22.20;51.90;;;;;;5110763;28;20051;-74
2024/01/09 12:37:15;;;;;;;13.13;8.00;;;22.30;52.20;;;;;;5110886;28;20360;-74
2024/01/09 12:39:42;;;;;;;15.00;8.18;;;22.10;52.20;;;;;;5110991;28;20366;-74
2024/01/09 12:42:16;;;;;;;11.27;7.28;;;22.00;52.80;;;;;;5110319;28;20039;-73